createdAt,value
2023-03-16T00:00:25.983Z,181.64
2023-03-16T00:01:15.541Z,183.03
2023-03-16T00:02:05.619Z,187.79
2023-03-16T00:02:55.608Z,186.71
2023-03-16T00:03:45.684Z,180.12
2023-03-16T00:04:35.744Z,182.75
2023-03-16T00:05:25.767Z,177.93
2023-03-16T00:06:15.845Z,181.35
2023-03-16T00:07:05.899Z,181.12
2023-03-16T00:07:55.937Z,180.49
2023-03-16T00:08:45.965Z,176.62
2023-03-16T00:09:36.321Z,179.74
2023-03-16T00:10:26.659Z,175.51
2023-03-16T00:11:16.420Z,175.60
2023-03-16T00:12:06.465Z,173.51
2023-03-16T00:12:56.512Z,173.97
2023-03-16T00:13:47.242Z,171.45
2023-03-16T00:14:36.589Z,173.16
2023-03-16T00:15:26.631Z,176.64
2023-03-16T00:16:16.778Z,172.34
2023-03-16T00:17:06.800Z,174.87
2023-03-16T00:17:56.820Z,178.88
2023-03-16T00:18:46.839Z,170.19
2023-03-16T00:19:36.919Z,178.40
2023-03-16T00:20:27.174Z,175.53
2023-03-16T00:21:17.021Z,177.63
2023-03-16T00:22:07.101Z,178.12
2023-03-16T00:22:57.138Z,179.29
2023-03-16T00:23:47.166Z,179.45
2023-03-16T00:24:37.248Z,179.71
2023-03-16T00:25:27.539Z,182.70
2023-03-16T00:26:17.599Z,180.14
2023-03-16T00:27:07.646Z,183.34
2023-03-16T00:27:57.662Z,184.92
2023-03-16T00:28:47.689Z,184.39
2023-03-16T00:29:37.780Z,188.55
2023-03-16T00:30:28.121Z,184.15
2023-03-16T00:31:17.930Z,187.40
2023-03-16T00:32:08.034Z,189.12
2023-03-16T00:32:58.142Z,192.05
2023-03-16T00:33:48.128Z,185.74
2023-03-16T00:34:38.205Z,185.85
2023-03-16T00:35:28.239Z,185.37
2023-03-16T00:36:18.286Z,184.43
2023-03-16T00:37:08.363Z,186.59
2023-03-16T00:37:58.365Z,185.40
2023-03-16T00:38:48.436Z,189.52
2023-03-16T00:39:38.519Z,191.94
2023-03-16T00:40:29.073Z,189.89
2023-03-16T00:41:18.647Z,194.25
2023-03-16T00:42:08.663Z,192.47
2023-03-16T00:42:58.714Z,194.21
2023-03-16T00:43:48.737Z,191.98
2023-03-16T00:44:38.779Z,193.63
2023-03-16T00:45:28.930Z,193.26
2023-03-16T00:46:18.976Z,196.67
2023-03-16T00:47:08.988Z,195.68
2023-03-16T00:47:59.037Z,192.89
2023-03-16T00:48:49.185Z,193.60
2023-03-16T00:49:39.126Z,196.07
2023-03-16T00:50:29.670Z,194.79
2023-03-16T00:51:19.211Z,193.99
2023-03-16T00:52:09.268Z,190.77
2023-03-16T00:52:59.294Z,192.95
2023-03-16T00:53:49.324Z,193.47
2023-03-16T00:54:39.404Z,190.81
2023-03-16T00:55:29.438Z,188.02
2023-03-16T00:56:19.523Z,186.69
2023-03-16T00:57:09.560Z,186.31
2023-03-16T00:57:59.608Z,187.21
2023-03-16T00:58:49.639Z,187.21
2023-03-16T00:59:39.686Z,188.13
2023-03-16T01:00:29.813Z,188.22
2023-03-16T01:01:19.897Z,189.85
2023-03-16T01:02:09.861Z,193.77
2023-03-16T01:02:59.988Z,189.30
2023-03-16T01:03:50.015Z,189.81
2023-03-16T01:04:40.114Z,191.44
2023-03-16T01:05:30.068Z,187.96
2023-03-16T01:06:20.115Z,187.01
2023-03-16T01:07:10.161Z,188.89
2023-03-16T01:08:00.209Z,192.91
2023-03-16T01:08:50.241Z,192.82
2023-03-16T01:09:40.328Z,195.28
2023-03-16T01:10:30.573Z,197.32
2023-03-16T01:11:20.456Z,195.67
2023-03-16T01:12:10.497Z,197.97
2023-03-16T01:13:00.555Z,195.11
2023-03-16T01:13:50.582Z,194.74
2023-03-16T01:14:40.657Z,195.65
2023-03-16T01:15:30.719Z,195.41
2023-03-16T01:16:20.833Z,198.00
2023-03-16T01:17:10.969Z,194.26
2023-03-16T01:18:00.890Z,197.87
2023-03-16T01:18:50.927Z,193.65
2023-03-16T01:19:40.964Z,191.70
2023-03-16T01:20:31.024Z,192.04
2023-03-16T01:21:21.044Z,196.43
2023-03-16T01:22:11.107Z,193.77
2023-03-16T01:23:01.192Z,192.93
2023-03-16T01:23:51.227Z,197.74
2023-03-16T01:24:41.292Z,199.19
2023-03-16T01:25:31.322Z,201.71
2023-03-16T01:26:21.403Z,206.18
2023-03-16T01:27:11.460Z,203.27
2023-03-16T01:28:01.552Z,204.49
2023-03-16T01:28:51.541Z,209.34
2023-03-16T01:29:41.589Z,203.69
2023-03-16T01:30:31.661Z,207.93
2023-03-16T01:31:21.748Z,209.65
2023-03-16T01:32:11.717Z,205.24
2023-03-16T01:33:01.850Z,211.22
2023-03-16T01:33:51.795Z,214.21
2023-03-16T01:34:41.878Z,213.48
2023-03-16T01:35:32.028Z,210.48
2023-03-16T01:36:21.984Z,208.79
2023-03-16T01:37:12.005Z,203.85
2023-03-16T01:38:02.040Z,205.51
2023-03-16T01:38:52.083Z,205.36
2023-03-16T01:39:42.176Z,208.61
2023-03-16T01:40:32.186Z,205.14
2023-03-16T01:41:22.262Z,201.64
2023-03-16T01:42:12.324Z,202.78
2023-03-16T01:43:02.402Z,201.78
2023-03-16T01:43:52.431Z,197.58
2023-03-16T01:44:42.509Z,197.75
2023-03-16T01:45:32.802Z,202.05
2023-03-16T01:46:22.933Z,200.72
2023-03-16T01:47:12.890Z,199.86
2023-03-16T01:48:02.937Z,200.21
2023-03-16T01:48:52.978Z,199.11
2023-03-16T01:49:43.009Z,198.99
2023-03-16T01:50:33.043Z,201.28
2023-03-16T01:51:23.083Z,200.23
2023-03-16T01:52:13.201Z,201.32
2023-03-16T01:53:03.216Z,197.45
2023-03-16T01:53:53.265Z,189.72
2023-03-16T01:54:43.297Z,193.71
2023-03-16T01:55:33.336Z,188.51
2023-03-16T01:56:23.380Z,192.15
2023-03-16T01:57:13.462Z,193.28
2023-03-16T01:58:03.506Z,194.32
2023-03-16T01:58:53.582Z,192.07
2023-03-16T01:59:43.645Z,192.17
2023-03-16T02:00:33.663Z,191.23
2023-03-16T02:01:23.762Z,191.75
2023-03-16T02:02:13.779Z,189.12
2023-03-16T02:03:03.814Z,190.61
2023-03-16T02:03:53.848Z,192.79
2023-03-16T02:04:43.913Z,192.92
2023-03-16T02:05:33.955Z,183.45
2023-03-16T02:06:24.041Z,191.44
2023-03-16T02:07:14.104Z,193.27
2023-03-16T02:08:04.162Z,194.54
2023-03-16T02:08:54.157Z,190.33
2023-03-16T02:09:44.247Z,194.64
2023-03-16T02:10:34.274Z,193.78
2023-03-16T02:11:24.328Z,192.66
2023-03-16T02:12:14.411Z,196.86
2023-03-16T02:13:04.465Z,192.75
2023-03-16T02:13:54.493Z,199.44
2023-03-16T02:14:44.533Z,193.62
2023-03-16T02:15:34.620Z,188.95
2023-03-16T02:16:24.627Z,195.51
2023-03-16T02:17:14.666Z,196.71
2023-03-16T02:18:04.703Z,198.49
2023-03-16T02:18:54.788Z,197.73
2023-03-16T02:19:44.868Z,193.10
2023-03-16T02:20:34.899Z,191.74
2023-03-16T02:21:24.946Z,189.33
2023-03-16T02:22:14.996Z,187.15
2023-03-16T02:23:05.035Z,185.58
2023-03-16T02:23:55.098Z,187.71
2023-03-16T02:24:45.116Z,192.57
2023-03-16T02:25:35.196Z,193.08
2023-03-16T02:26:25.236Z,196.43
2023-03-16T02:27:15.317Z,197.04
2023-03-16T02:28:05.326Z,194.36
2023-03-16T02:28:55.366Z,192.61
2023-03-16T02:29:45.438Z,191.33
2023-03-16T02:30:35.483Z,194.24
2023-03-16T02:31:25.589Z,195.44
2023-03-16T02:32:15.640Z,197.06
2023-03-16T02:33:05.696Z,197.86
2023-03-16T02:33:55.727Z,193.83
2023-03-16T02:34:45.809Z,195.81
2023-03-16T02:35:35.959Z,198.50
2023-03-16T02:36:27.238Z,200.82
2023-03-16T02:37:15.982Z,203.08
2023-03-16T02:38:06.005Z,199.69
2023-03-16T02:38:56.078Z,199.20
2023-03-16T02:39:46.142Z,189.67
2023-03-16T02:40:36.163Z,191.37
2023-03-16T02:41:26.193Z,191.61
2023-03-16T02:42:16.275Z,192.59
2023-03-16T02:43:06.320Z,193.29
2023-03-16T02:43:56.356Z,185.31
2023-03-16T02:44:46.412Z,188.74
2023-03-16T02:45:36.445Z,190.12
2023-03-16T02:46:26.546Z,190.82
2023-03-16T02:47:16.600Z,190.07
2023-03-16T02:48:06.613Z,185.54
2023-03-16T02:48:56.647Z,192.01
2023-03-16T02:49:46.701Z,195.04
2023-03-16T02:50:36.733Z,194.02
2023-03-16T02:51:26.786Z,191.56
2023-03-16T02:52:16.877Z,188.20
2023-03-16T02:53:06.909Z,191.60
2023-03-16T02:53:56.954Z,190.85
2023-03-16T02:54:47.006Z,189.46
2023-03-16T02:55:37.055Z,193.07
2023-03-16T02:56:27.096Z,192.28
2023-03-16T02:57:17.124Z,191.68
2023-03-16T02:58:07.170Z,189.98
2023-03-16T02:58:57.247Z,194.10
2023-03-16T02:59:47.336Z,191.67
2023-03-16T03:00:37.363Z,192.17
2023-03-16T03:01:27.400Z,190.36
2023-03-16T03:02:17.462Z,187.39
2023-03-16T03:03:07.540Z,189.29
2023-03-16T03:03:57.543Z,191.26
2023-03-16T03:04:47.589Z,194.15
2023-03-16T03:05:37.669Z,193.21
2023-03-16T03:06:27.704Z,192.18
2023-03-16T03:07:17.746Z,185.40
2023-03-16T03:08:07.792Z,189.99
2023-03-16T03:08:57.829Z,189.58
2023-03-16T03:09:47.883Z,190.46
2023-03-16T03:10:37.939Z,190.98
2023-03-16T03:11:28.036Z,195.87
2023-03-16T03:12:18.082Z,197.20
2023-03-16T03:13:08.129Z,195.25
2023-03-16T03:13:58.164Z,193.04
2023-03-16T03:14:48.240Z,191.93
2023-03-16T03:15:38.280Z,188.46
2023-03-16T03:16:28.439Z,187.46
2023-03-16T03:17:18.381Z,187.65
2023-03-16T03:18:08.412Z,184.90
2023-03-16T03:18:58.489Z,183.78
2023-03-16T03:19:48.522Z,188.75
2023-03-16T03:20:38.567Z,193.81
2023-03-16T03:21:28.614Z,194.45
2023-03-16T03:22:18.676Z,195.00
2023-03-16T03:23:08.704Z,189.44
2023-03-16T03:23:58.728Z,188.36
2023-03-16T03:24:48.772Z,190.34
2023-03-16T03:25:38.850Z,194.14
2023-03-16T03:26:28.916Z,192.72
2023-03-16T03:27:19.008Z,195.58
2023-03-16T03:28:09.036Z,196.84
2023-03-16T03:28:59.064Z,193.29
2023-03-16T03:29:49.149Z,192.25
2023-03-16T03:30:39.182Z,199.84
2023-03-16T03:31:29.269Z,188.66
2023-03-16T03:32:19.322Z,191.83
2023-03-16T03:33:09.444Z,192.20
2023-03-16T03:33:59.399Z,197.04
2023-03-16T03:34:49.439Z,192.26
2023-03-16T03:35:39.539Z,191.90
2023-03-16T03:36:29.547Z,194.18
2023-03-16T03:37:19.596Z,190.44
2023-03-16T03:38:09.636Z,191.28
2023-03-16T03:38:59.709Z,195.78
2023-03-16T03:39:49.752Z,191.21
2023-03-16T03:40:39.799Z,191.31
2023-03-16T03:41:29.832Z,191.27
2023-03-16T03:42:19.891Z,189.01
2023-03-16T03:43:09.950Z,195.73
2023-03-16T03:43:59.981Z,194.70
2023-03-16T03:44:50.023Z,193.99
2023-03-16T03:45:40.168Z,193.28
2023-03-16T03:46:30.415Z,191.45
2023-03-16T03:47:20.239Z,189.71
2023-03-16T03:48:10.280Z,191.38
2023-03-16T03:49:00.308Z,189.92
2023-03-16T03:49:50.360Z,190.35
2023-03-16T03:50:40.393Z,192.37
2023-03-16T03:51:30.447Z,192.18
2023-03-16T03:52:20.580Z,190.29
2023-03-16T03:53:10.632Z,191.95
2023-03-16T03:54:00.727Z,190.85
2023-03-16T03:54:50.716Z,195.76
2023-03-16T03:55:40.747Z,198.92
2023-03-16T03:56:30.789Z,195.08
2023-03-16T03:57:21.950Z,199.20
2023-03-16T03:58:10.906Z,195.98
2023-03-16T03:59:00.963Z,194.07
2023-03-16T03:59:50.985Z,193.44
2023-03-16T04:00:41.055Z,192.68
2023-03-16T04:01:31.144Z,190.17
2023-03-16T04:02:21.399Z,191.24
2023-03-16T04:03:11.484Z,189.06
2023-03-16T04:04:01.278Z,190.81
2023-03-16T04:04:51.366Z,194.86
2023-03-16T04:05:41.408Z,189.03
2023-03-16T04:06:31.456Z,189.66
2023-03-16T04:07:21.503Z,193.07
2023-03-16T04:08:11.545Z,192.58
2023-03-16T04:09:01.585Z,190.19
2023-03-16T04:09:51.635Z,188.68
2023-03-16T04:10:41.669Z,188.66
2023-03-16T04:11:31.792Z,190.62
2023-03-16T04:12:21.815Z,193.45
2023-03-16T04:13:11.861Z,193.57
2023-03-16T04:14:01.904Z,194.61
2023-03-16T04:14:51.959Z,191.27
2023-03-16T04:15:41.968Z,192.61
2023-03-16T04:16:32.041Z,194.00
2023-03-16T04:17:22.097Z,191.43
2023-03-16T04:18:12.227Z,198.49
2023-03-16T04:19:02.267Z,195.11
2023-03-16T04:19:52.318Z,192.47
2023-03-16T04:20:42.359Z,193.37
2023-03-16T04:21:32.446Z,194.69
2023-03-16T04:22:22.485Z,198.20
2023-03-16T04:23:12.543Z,195.65
2023-03-16T04:24:02.569Z,194.08
2023-03-16T04:24:52.729Z,198.71
2023-03-16T04:25:42.761Z,195.97
2023-03-16T04:26:32.808Z,198.99
2023-03-16T04:27:22.871Z,196.52
2023-03-16T04:28:12.908Z,198.07
2023-03-16T04:29:02.952Z,196.45
2023-03-16T04:29:53.035Z,200.78
2023-03-16T04:30:43.177Z,203.04
2023-03-16T04:31:33.158Z,196.72
2023-03-16T04:32:23.217Z,198.96
2023-03-16T04:33:13.243Z,200.09
2023-03-16T04:34:03.279Z,200.26
2023-03-16T04:34:53.336Z,195.41
2023-03-16T04:35:43.380Z,199.20
2023-03-16T04:36:33.443Z,199.68
2023-03-16T04:37:23.490Z,196.64
2023-03-16T04:38:13.591Z,198.23
2023-03-16T04:39:03.617Z,202.45
2023-03-16T04:39:53.659Z,205.08
2023-03-16T04:40:43.716Z,200.69
2023-03-16T04:41:33.764Z,196.24
2023-03-16T04:42:23.809Z,197.75
2023-03-16T04:43:13.883Z,198.83
2023-03-16T04:44:03.883Z,200.27
2023-03-16T04:44:53.979Z,198.92
2023-03-16T04:45:44.001Z,197.15
2023-03-16T04:46:34.131Z,200.66
2023-03-16T04:47:24.085Z,198.87
2023-03-16T04:48:14.132Z,198.14
2023-03-16T04:49:04.163Z,201.82
2023-03-16T04:49:54.246Z,196.77
2023-03-16T04:50:44.281Z,194.68
2023-03-16T04:51:34.329Z,197.33
2023-03-16T04:52:24.383Z,199.62
2023-03-16T04:53:14.429Z,202.74
2023-03-16T04:54:04.474Z,201.33
2023-03-16T04:54:54.510Z,203.59
2023-03-16T04:55:44.544Z,205.70
2023-03-16T04:56:34.590Z,204.55
2023-03-16T04:57:24.640Z,200.13
2023-03-16T04:58:14.740Z,210.64
2023-03-16T04:59:04.756Z,211.18
2023-03-16T04:59:54.801Z,211.23
2023-03-16T05:00:44.835Z,204.96
2023-03-16T05:01:34.940Z,203.93
2023-03-16T05:02:24.966Z,200.72
2023-03-16T05:03:14.979Z,198.62
2023-03-16T05:04:05.021Z,204.40
2023-03-16T05:04:55.117Z,205.79
2023-03-16T05:05:45.244Z,210.16
2023-03-16T05:06:35.230Z,210.49
2023-03-16T05:07:25.276Z,214.57
2023-03-16T05:08:15.322Z,208.63
2023-03-16T05:09:05.360Z,205.68
2023-03-16T05:09:55.413Z,204.81
2023-03-16T05:10:45.440Z,204.42
2023-03-16T05:11:35.524Z,204.50
2023-03-16T05:12:25.580Z,205.30
2023-03-16T05:13:15.622Z,201.73
2023-03-16T05:14:05.665Z,207.16
2023-03-16T05:14:55.707Z,205.42
2023-03-16T05:15:45.857Z,204.78
2023-03-16T05:16:35.798Z,205.85
2023-03-16T05:17:25.854Z,198.32
2023-03-16T05:18:15.959Z,203.22
2023-03-16T05:19:05.983Z,202.89
2023-03-16T05:19:56.028Z,208.53
2023-03-16T05:20:46.054Z,214.18
2023-03-16T05:21:36.094Z,216.18
2023-03-16T05:22:26.172Z,210.14
2023-03-16T05:23:16.205Z,207.97
2023-03-16T05:24:06.246Z,202.29
2023-03-16T05:24:56.378Z,206.49
2023-03-16T05:25:47.259Z,209.03
2023-03-16T05:26:36.478Z,204.58
2023-03-16T05:27:26.542Z,206.82
2023-03-16T05:28:16.587Z,203.62
2023-03-16T05:29:06.620Z,199.65
2023-03-16T05:29:56.657Z,202.23
2023-03-16T05:30:46.777Z,204.19
2023-03-16T05:31:36.888Z,209.00
2023-03-16T05:32:26.924Z,205.24
2023-03-16T05:33:16.950Z,207.83
2023-03-16T05:34:07.014Z,206.95
2023-03-16T05:34:57.065Z,204.34
2023-03-16T05:35:47.123Z,205.35
2023-03-16T05:36:37.179Z,202.86
2023-03-16T05:37:27.230Z,202.08
2023-03-16T05:38:17.271Z,206.11
2023-03-16T05:39:07.342Z,204.79
2023-03-16T05:39:57.418Z,203.58
2023-03-16T05:40:47.485Z,202.98
2023-03-16T05:41:37.573Z,204.16
2023-03-16T05:42:27.617Z,202.76
2023-03-16T05:43:17.654Z,206.30
2023-03-16T05:44:07.698Z,202.79
2023-03-16T05:44:57.734Z,205.12
2023-03-16T05:45:48.034Z,208.50
2023-03-16T05:46:38.153Z,207.00
2023-03-16T05:47:28.141Z,213.37
2023-03-16T05:48:18.180Z,213.74
2023-03-16T05:49:08.220Z,213.46
2023-03-16T05:49:58.287Z,214.98
2023-03-16T05:50:48.296Z,211.08
2023-03-16T05:51:38.387Z,209.16
2023-03-16T05:52:28.506Z,214.64
2023-03-16T05:53:18.519Z,211.50
2023-03-16T05:54:08.560Z,212.53
2023-03-16T05:54:58.631Z,216.00
2023-03-16T05:55:48.651Z,216.66
2023-03-16T05:56:38.706Z,214.97
2023-03-16T05:57:28.759Z,212.07
2023-03-16T05:58:18.808Z,212.17
2023-03-16T05:59:08.888Z,213.54
2023-03-16T05:59:58.920Z,209.78
2023-03-16T06:00:48.958Z,213.06
2023-03-16T06:01:39.003Z,207.16
2023-03-16T06:02:29.076Z,206.75
2023-03-16T06:03:19.136Z,208.07
2023-03-16T06:04:09.194Z,206.52
2023-03-16T06:04:59.215Z,212.02
2023-03-16T06:05:49.311Z,210.84
2023-03-16T06:06:39.357Z,208.19
2023-03-16T06:07:29.387Z,207.04
2023-03-16T06:08:19.430Z,214.21
2023-03-16T06:09:09.472Z,211.73
2023-03-16T06:09:59.508Z,208.54
2023-03-16T06:10:49.543Z,207.61
2023-03-16T06:11:39.590Z,208.50
2023-03-16T06:12:29.735Z,205.26
2023-03-16T06:13:19.781Z,210.12
2023-03-16T06:14:09.816Z,210.99
2023-03-16T06:14:59.866Z,207.45
2023-03-16T06:15:50.008Z,208.47
2023-03-16T06:16:40.025Z,205.77
2023-03-16T06:17:30.000Z,207.10
2023-03-16T06:18:20.037Z,210.31
2023-03-16T06:19:10.116Z,207.78
2023-03-16T06:20:00.226Z,204.76
2023-03-16T06:20:50.207Z,206.93
2023-03-16T06:21:40.336Z,205.13
2023-03-16T06:22:30.417Z,210.80
2023-03-16T06:23:20.394Z,209.72
2023-03-16T06:24:10.428Z,203.95
2023-03-16T06:25:00.453Z,204.46
2023-03-16T06:25:50.570Z,206.98
2023-03-16T06:26:40.625Z,206.29
2023-03-16T06:27:30.685Z,210.52
2023-03-16T06:28:20.720Z,206.22
2023-03-16T06:29:10.767Z,204.43
2023-03-16T06:30:00.829Z,203.03
2023-03-16T06:30:50.851Z,208.19
2023-03-16T06:31:41.056Z,209.78
2023-03-16T06:32:31.048Z,209.24
2023-03-16T06:33:21.056Z,210.46
2023-03-16T06:34:11.091Z,211.57
2023-03-16T06:35:01.136Z,208.48
2023-03-16T06:35:51.227Z,212.76
2023-03-16T06:36:41.219Z,212.04
2023-03-16T06:37:31.307Z,211.32
2023-03-16T06:38:21.320Z,208.81
2023-03-16T06:39:11.404Z,212.35
2023-03-16T06:40:01.454Z,210.20
2023-03-16T06:40:51.480Z,210.45
2023-03-16T06:41:41.522Z,213.85
2023-03-16T06:42:31.575Z,209.87
2023-03-16T06:43:21.614Z,208.79
2023-03-16T06:44:11.662Z,211.64
2023-03-16T06:45:01.737Z,206.86
2023-03-16T06:45:51.788Z,207.44
2023-03-16T06:46:41.865Z,207.84
2023-03-16T06:47:31.954Z,209.98
2023-03-16T06:48:21.946Z,202.56
2023-03-16T06:49:11.977Z,207.67
2023-03-16T06:50:02.106Z,206.81
2023-03-16T06:50:52.116Z,214.44
2023-03-16T06:51:42.146Z,207.85
2023-03-16T06:52:32.205Z,214.16
2023-03-16T06:53:22.267Z,204.42
2023-03-16T06:54:12.277Z,207.91
2023-03-16T06:55:02.371Z,205.83
2023-03-16T06:55:52.403Z,204.61
2023-03-16T06:56:42.451Z,200.03
2023-03-16T06:57:32.514Z,203.12
2023-03-16T06:58:22.551Z,206.05
2023-03-16T06:59:12.652Z,198.60
2023-03-16T07:00:02.711Z,194.29
2023-03-16T07:00:52.766Z,196.48
2023-03-16T07:01:42.782Z,196.64
2023-03-16T07:02:32.832Z,194.68
2023-03-16T07:03:22.886Z,195.05
2023-03-16T07:04:13.012Z,193.82
2023-03-16T07:05:02.954Z,196.71
2023-03-16T07:05:53.079Z,195.80
2023-03-16T07:06:43.132Z,191.74
2023-03-16T07:07:33.173Z,190.55
2023-03-16T07:08:23.218Z,195.72
2023-03-16T07:09:13.275Z,204.79
2023-03-16T07:10:03.303Z,198.86
2023-03-16T07:10:53.336Z,195.95
2023-03-16T07:11:43.387Z,194.87
2023-03-16T07:12:33.513Z,190.57
2023-03-16T07:13:23.514Z,195.46
2023-03-16T07:14:13.557Z,197.43
2023-03-16T07:15:03.627Z,193.43
2023-03-16T07:15:53.701Z,203.04
2023-03-16T07:16:43.866Z,205.14
2023-03-16T07:17:33.783Z,202.20
2023-03-16T07:18:23.815Z,202.30
2023-03-16T07:19:13.916Z,192.64
2023-03-16T07:20:03.960Z,191.28
2023-03-16T07:20:54.004Z,188.35
2023-03-16T07:21:44.038Z,201.15
2023-03-16T07:22:34.072Z,197.52
2023-03-16T07:23:24.118Z,199.94
2023-03-16T07:24:14.190Z,206.78
2023-03-16T07:25:04.272Z,195.40
2023-03-16T07:25:54.327Z,198.99
2023-03-16T07:26:44.364Z,201.97
2023-03-16T07:27:34.399Z,199.06
2023-03-16T07:28:24.435Z,194.89
2023-03-16T07:29:14.495Z,208.19
2023-03-16T07:30:04.547Z,205.27
2023-03-16T07:31:03.474Z,201.61
2023-03-16T07:31:45.694Z,201.63
2023-03-16T07:32:34.763Z,201.07
2023-03-16T07:33:24.763Z,203.41
2023-03-16T07:34:14.846Z,204.01
2023-03-16T07:35:04.883Z,202.85
2023-03-16T07:35:54.980Z,199.62
2023-03-16T07:36:44.989Z,200.49
2023-03-16T07:37:35.250Z,196.51
2023-03-16T07:38:25.338Z,204.28
2023-03-16T07:39:15.348Z,215.16
2023-03-16T07:40:05.396Z,214.42
2023-03-16T07:40:55.449Z,211.23
2023-03-16T07:41:45.466Z,203.45
2023-03-16T07:42:35.538Z,196.24
2023-03-16T07:43:25.544Z,200.90
2023-03-16T07:44:15.640Z,202.29
2023-03-16T07:45:05.693Z,202.34
2023-03-16T07:45:55.751Z,211.55
2023-03-16T07:46:45.752Z,205.00
2023-03-16T07:47:35.821Z,195.02
2023-03-16T07:48:25.861Z,194.36
2023-03-16T07:49:15.965Z,188.31
2023-03-16T07:50:06.000Z,193.92
2023-03-16T07:50:56.081Z,190.09
2023-03-16T07:51:46.111Z,191.29
2023-03-16T07:52:37.547Z,186.64
2023-03-16T07:53:26.245Z,191.21
2023-03-16T07:54:16.289Z,189.81
2023-03-16T07:55:06.326Z,194.30
2023-03-16T07:55:56.363Z,197.65
2023-03-16T07:56:49.513Z,188.81
2023-03-16T07:57:36.452Z,182.96
2023-03-16T07:58:26.525Z,189.37
2023-03-16T07:59:16.637Z,190.68
2023-03-16T08:00:06.647Z,194.67
2023-03-16T08:00:56.985Z,197.69
2023-03-16T08:01:47.052Z,189.58
2023-03-16T08:02:37.140Z,188.27
2023-03-16T08:03:27.194Z,187.93
2023-03-16T08:04:17.222Z,196.55
2023-03-16T08:05:07.259Z,194.33
2023-03-16T08:05:57.301Z,195.56
2023-03-16T08:06:47.332Z,199.47
2023-03-16T08:07:37.417Z,199.95
2023-03-16T08:08:27.452Z,194.85
2023-03-16T08:09:17.518Z,183.70
2023-03-16T08:10:07.558Z,196.74
2023-03-16T08:10:57.667Z,196.50
2023-03-16T08:11:47.696Z,197.41
2023-03-16T08:12:37.841Z,191.96
2023-03-16T08:13:27.817Z,185.62
2023-03-16T08:14:17.902Z,190.31
2023-03-16T08:15:07.969Z,186.96
2023-03-16T08:15:58.016Z,184.85
2023-03-16T08:16:48.019Z,188.10
2023-03-16T08:17:38.073Z,180.99
2023-03-16T08:18:28.097Z,172.43
2023-03-16T08:19:18.225Z,178.63
2023-03-16T08:20:08.213Z,177.43
2023-03-16T08:20:58.277Z,180.84
2023-03-16T08:22:00.765Z,184.06
2023-03-16T08:22:39.394Z,184.06
2023-03-16T08:23:28.437Z,182.42
2023-03-16T08:24:18.527Z,184.31
2023-03-16T08:25:08.548Z,187.43
2023-03-16T08:25:58.669Z,191.57
2023-03-16T08:26:48.693Z,191.66
2023-03-16T08:27:38.770Z,190.82
2023-03-16T08:28:28.981Z,184.92
2023-03-16T08:29:18.976Z,177.62
2023-03-16T08:30:09.004Z,186.81
2023-03-16T08:30:59.132Z,198.63
2023-03-16T08:31:49.117Z,202.38
2023-03-16T08:32:39.192Z,188.67
2023-03-16T08:33:29.200Z,178.17
2023-03-16T08:34:19.251Z,183.22
2023-03-16T08:35:09.329Z,177.77
2023-03-16T08:35:59.413Z,177.61
2023-03-16T08:36:49.415Z,181.07
2023-03-16T08:37:39.451Z,184.98
2023-03-16T08:38:29.494Z,181.92
2023-03-16T08:39:19.595Z,185.52
2023-03-16T08:40:09.632Z,178.84
2023-03-16T08:40:59.671Z,176.77
2023-03-16T08:41:49.751Z,176.87
2023-03-16T08:42:39.789Z,184.52
2023-03-16T08:43:29.820Z,182.25
2023-03-16T08:44:19.905Z,182.71
2023-03-16T08:45:12.365Z,182.11
2023-03-16T08:46:00.041Z,180.99
2023-03-16T08:46:50.055Z,175.44
2023-03-16T08:47:40.094Z,172.72
2023-03-16T08:48:30.133Z,165.30
2023-03-16T08:49:20.223Z,181.80
2023-03-16T08:50:10.251Z,180.98
2023-03-16T08:51:00.285Z,183.56
2023-03-16T08:51:50.318Z,193.61
2023-03-16T08:52:40.353Z,191.25
2023-03-16T08:53:30.393Z,187.68
2023-03-16T08:54:20.445Z,189.02
2023-03-16T08:55:10.490Z,186.05
2023-03-16T08:56:00.562Z,191.54
2023-03-16T08:56:50.588Z,186.39
2023-03-16T08:57:40.675Z,188.35
2023-03-16T08:58:30.700Z,186.34
2023-03-16T08:59:29.730Z,186.21
2023-03-16T09:00:11.889Z,185.53
2023-03-16T09:01:00.888Z,186.57
2023-03-16T09:01:50.941Z,188.09
2023-03-16T09:02:41.002Z,187.48
2023-03-16T09:03:31.028Z,187.18
2023-03-16T09:04:21.152Z,179.67
2023-03-16T09:05:11.153Z,169.09
2023-03-16T09:06:01.358Z,175.94
2023-03-16T09:07:05.931Z,177.14
2023-03-16T09:07:42.467Z,177.14
2023-03-16T09:08:31.497Z,177.79
2023-03-16T09:09:21.594Z,175.55
2023-03-16T09:10:11.639Z,163.15
2023-03-16T09:11:01.678Z,162.64
2023-03-16T09:11:51.742Z,162.58
2023-03-16T09:12:41.822Z,164.83
2023-03-16T09:13:32.033Z,174.78
2023-03-16T09:14:22.124Z,170.49
2023-03-16T09:15:12.129Z,168.43
2023-03-16T09:16:02.265Z,163.11
2023-03-16T09:16:52.203Z,173.29
2023-03-16T09:17:42.292Z,184.90
2023-03-16T09:18:32.455Z,192.81
2023-03-16T09:19:22.389Z,189.15
2023-03-16T09:20:22.183Z,166.73
2023-03-16T09:21:03.613Z,163.44
2023-03-16T09:21:52.637Z,164.16
2023-03-16T09:22:42.708Z,168.45
2023-03-16T09:23:32.786Z,170.40
2023-03-16T09:24:22.832Z,171.18
2023-03-16T09:25:12.862Z,160.45
2023-03-16T09:26:02.906Z,164.36
2023-03-16T09:26:53.198Z,173.09
2023-03-16T09:27:43.190Z,187.49
2023-03-16T09:28:33.233Z,185.81
2023-03-16T09:29:23.291Z,172.15
2023-03-16T09:30:13.355Z,165.19
2023-03-16T09:31:03.458Z,172.69
2023-03-16T09:31:53.517Z,170.08
2023-03-16T09:32:43.517Z,177.74
2023-03-16T09:33:33.586Z,180.14
2023-03-16T09:35:13.690Z,171.38
2023-03-16T09:36:03.839Z,165.30
2023-03-16T09:36:53.778Z,171.15
2023-03-16T09:37:45.814Z,170.94
2023-03-16T09:38:34.878Z,162.23
2023-03-16T09:39:23.921Z,164.34
2023-03-16T09:40:13.986Z,155.52
2023-03-16T09:41:04.054Z,150.66
2023-03-16T09:41:54.133Z,161.84
2023-03-16T09:42:44.212Z,180.82
2023-03-16T09:43:34.270Z,187.12
2023-03-16T09:44:24.452Z,188.30
2023-03-16T09:45:14.474Z,189.42
2023-03-16T09:46:04.540Z,193.41
2023-03-16T09:46:54.654Z,195.21
2023-03-16T09:47:44.653Z,191.68
2023-03-16T09:48:34.678Z,192.17
2023-03-16T09:49:24.741Z,182.88
2023-03-16T09:50:14.797Z,187.40
2023-03-16T09:51:04.950Z,187.34
2023-03-16T09:51:54.898Z,188.79
2023-03-16T09:52:44.963Z,186.20
2023-03-16T09:53:34.979Z,178.22
2023-03-16T09:54:25.030Z,178.72
2023-03-16T09:55:15.087Z,175.86
2023-03-16T09:56:05.119Z,180.26
2023-03-16T09:56:55.181Z,164.85
2023-03-16T09:57:45.248Z,146.08
2023-03-16T09:58:35.318Z,141.57
2023-03-16T09:59:25.373Z,140.77
2023-03-16T10:00:15.446Z,140.02
2023-03-16T10:01:05.516Z,146.35
2023-03-16T10:01:55.515Z,159.90
2023-03-16T10:02:45.564Z,155.62
2023-03-16T10:03:36.005Z,166.69
2023-03-16T10:04:25.913Z,172.36
2023-03-16T10:05:15.963Z,181.04
2023-03-16T10:06:05.990Z,183.55
2023-03-16T10:06:56.029Z,172.37
2023-03-16T10:07:46.071Z,172.04
2023-03-16T10:08:36.106Z,162.11
2023-03-16T10:09:47.157Z,158.26
2023-03-16T10:10:37.213Z,158.30
2023-03-16T10:11:27.263Z,158.37
2023-03-16T10:11:56.317Z,158.34
2023-03-16T10:12:46.383Z,159.07
2023-03-16T10:13:36.415Z,162.14
2023-03-16T10:14:26.530Z,165.56
2023-03-16T10:15:16.696Z,157.29
2023-03-16T10:16:06.638Z,151.67
2023-03-16T10:16:56.717Z,145.51
2023-03-16T10:17:46.715Z,144.29
2023-03-16T10:18:37.005Z,145.01
2023-03-16T10:19:27.132Z,158.38
2023-03-16T10:20:17.146Z,171.43
2023-03-16T10:21:07.483Z,177.76
2023-03-16T10:21:57.533Z,178.76
2023-03-16T10:22:47.611Z,168.20
2023-03-16T10:23:39.072Z,171.70
2023-03-16T10:24:27.805Z,168.84
2023-03-16T10:25:17.753Z,170.87